Time;durP1;ratioP1;P1;durP2;ratioP2;P2;SDS_P1;SDS_P2;PMS_P1;PMS_P2;Temp;Humidity;BMP_temperature;BMP_pressure;BME280_temperature;BME280_humidity;BME280_pressure;Samples;Min_cycle;Max_cycle;Signal;HPM_P1;HPM_P2
2023/07/20 00:02:15;;;;;;;3.20;2.13;;;20.40;45.50;;;21.84;37.18;97488.72;5032021;28;20072;-60
2023/07/20 00:04:43;;;;;;;6.28;2.10;;;20.30;45.30;;;21.85;36.76;97490.38;5031654;28;20050;-58
2023/07/20 00:07:11;;;;;;;2.50;2.00;;;20.30;44.90;;;21.86;36.74;97491.19;5030788;28;20054;-58
2023/07/20 00:09:38;;;;;;;2.83;1.90;;;20.20;44.70;;;21.84;36.68;97494.13;5031823;28;20512;-58
2023/07/20 00:12:07;;;;;;;3.28;1.92;;;20.20;44.80;;;21.83;36.49;97492.50;5031591;28;20440;-58
2023/07/20 00:14:34;;;;;;;4.72;2.10;;;20.20;44.60;;;21.78;36.48;97495.06;5031520;28;20520;-58
2023/07/20 00:17:02;;;;;;;3.17;2.33;;;20.20;44.40;;;21.78;36.55;97495.91;5032043;28;20044;-58
2023/07/20 00:19:32;;;;;;;3.30;2.33;;;20.20;44.50;;;21.71;36.79;97494.38;5031603;28;20493;-57
2023/07/20 00:21:59;;;;;;;3.10;2.10;;;20.10;44.50;;;21.59;37.02;97494.38;5031208;28;20402;-58
2023/07/20 00:24:27;;;;;;;2.53;2.25;;;20.00;44.70;;;21.51;37.08;97495.53;5030526;28;20448;-58
2023/07/20 00:26:55;;;;;;;3.38;2.10;;;20.00;45.00;;;21.45;36.98;97499.19;5028854;28;20049;-56
2023/07/20 00:29:22;;;;;;;3.70;1.85;;;19.90;45.30;;;21.51;36.86;97484.72;5030584;28;20413;-58
2023/07/20 00:31:50;;;;;;;3.22;2.22;;;19.90;45.20;;;21.40;37.37;97494.47;5031211;28;20501;-58
2023/07/20 00:34:18;;;;;;;2.85;2.22;;;19.90;45.70;;;21.31;37.72;97489.63;5032039;28;20046;-58
2023/07/20 00:36:46;;;;;;;2.20;2.00;;;19.80;45.80;;;21.33;37.46;97491.03;5029687;28;20115;-58
2023/07/20 00:39:13;;;;;;;3.00;2.35;;;19.70;45.90;;;21.34;37.42;97489.16;5030265;28;20050;-58
2023/07/20 00:41:42;;;;;;;2.28;1.70;;;19.70;46.50;;;21.36;37.24;97487.03;5029743;28;20045;-58
2023/07/20 00:44:09;;;;;;;2.70;1.92;;;19.70;46.40;;;21.15;37.96;97489.25;5031497;28;20393;-58
2023/07/20 00:46:38;;;;;;;2.20;1.90;;;19.60;46.90;;;21.15;37.77;97486.56;5031476;28;20076;-57
2023/07/20 00:49:07;;;;;;;3.85;2.28;;;19.60;46.80;;;21.23;37.85;97491.63;5013413;28;20049;-58
2023/07/20 00:51:34;;;;;;;3.92;2.20;;;19.60;46.80;;;21.19;38.02;97497.72;5013089;28;20058;-58
2023/07/20 00:54:02;;;;;;;3.08;2.22;;;19.60;47.20;;;21.17;38.24;97497.97;5030431;28;20064;-58
2023/07/20 00:56:30;;;;;;;4.63;2.00;;;19.50;47.30;;;21.19;37.91;97495.00;5030017;28;20456;-58
2023/07/20 00:58:58;;;;;;;2.92;2.50;;;19.50;47.20;;;21.19;37.76;97501.25;5031370;28;20033;-59
2023/07/20 01:01:25;;;;;;;3.97;1.83;;;19.50;47.20;;;21.13;38.15;97504.06;5031162;28;20412;-57
2023/07/20 01:03:53;;;;;;;4.10;2.22;;;19.40;47.30;;;21.00;38.51;97497.81;5030141;28;20076;-57
2023/07/20 01:06:41;;;;;;;5.53;1.95;;;19.40;47.50;;;20.89;38.93;97500.47;5031362;28;20053;-58
2023/07/20 01:09:26;;;;;;;5.03;2.55;;;19.30;48.30;;;20.79;38.83;97506.44;5025277;28;20097;-51
2023/07/20 01:12:17;;;;;;;4.88;2.70;;;19.20;48.70;;;20.75;39.41;97497.97;5029436;28;20076;-51
2023/07/20 01:14:45;;;;;;;4.00;2.40;;;19.10;49.10;;;20.63;39.66;97499.81;5029911;28;20048;-52
2023/07/20 01:17:13;;;;;;;3.83;2.00;;;19.10;49.10;;;20.60;39.51;97500.25;5022286;28;20053;-46
2023/07/20 01:19:41;;;;;;;2.33;1.60;;;19.00;49.20;;;20.65;39.58;97500.41;5034765;28;20076;-47
2023/07/20 01:22:55;;;;;;;3.60;2.42;;;19.10;49.40;;;20.58;39.86;97500.44;5017437;28;20420;-47
2023/07/20 01:26:19;;;;;;;6.15;2.65;;;19.10;49.50;;;20.54;39.98;97501.16;5029124;28;20056;-49
2023/07/20 01:29:17;;;;;;;4.05;2.08;;;19.00;50.00;;;20.60;39.85;97498.38;5031526;28;20049;-46
2023/07/20 01:31:47;;;;;;;3.67;2.05;;;19.00;50.00;;;20.56;39.91;97496.34;5033019;28;20060;-51
2023/07/20 01:34:18;;;;;;;3.63;2.38;;;18.90;50.10;;;20.43;40.40;97492.75;5033712;28;20045;-49
2023/07/20 01:36:48;;;;;;;2.17;1.90;;;18.90;50.90;;;20.45;40.27;97497.91;5033392;28;20057;-49
2023/07/20 01:39:16;;;;;;;4.72;2.30;;;18.80;50.70;;;20.41;40.37;97502.97;5033672;28;20045;-51
2023/07/20 01:41:45;;;;;;;5.82;2.22;;;18.80;50.60;;;20.43;40.35;97502.72;5033114;28;20041;-48
2023/07/20 01:44:13;;;;;;;4.07;2.42;;;18.80;50.50;;;20.43;40.53;97500.03;5033320;28;20044;-49
2023/07/20 01:46:41;;;;;;;2.72;1.90;;;18.80;50.60;;;20.49;40.23;97503.69;5033901;28;20493;-52
2023/07/20 01:49:08;;;;;;;3.78;2.60;;;18.90;50.50;;;20.46;40.47;97500.41;5032863;28;20056;-50
2023/07/20 01:51:36;;;;;;;5.13;2.20;;;18.90;50.80;;;20.38;40.64;97500.72;5034488;28;20048;-50
2023/07/20 01:54:03;;;;;;;3.92;2.10;;;18.80;51.20;;;20.44;40.67;97504.41;5032649;28;20056;-47
2023/07/20 01:56:31;;;;;;;3.10;2.05;;;18.80;51.30;;;20.40;40.59;97505.91;5033604;28;20053;-48
2023/07/20 01:58:59;;;;;;;6.78;2.78;;;18.80;51.70;;;20.38;40.78;97499.91;5033333;28;20045;-50
2023/07/20 02:01:28;;;;;;;5.38;2.42;;;18.80;51.20;;;20.46;40.69;97502.28;5016816;28;20049;-51
2023/07/20 02:03:56;;;;;;;5.13;2.63;;;18.80;51.20;;;20.51;40.58;97502.44;5032952;28;20045;-49
2023/07/20 02:06:23;;;;;;;4.00;2.40;;;18.90;51.10;;;20.52;40.77;97501.38;5033297;28;20053;-49
2023/07/20 02:08:52;;;;;;;4.97;2.40;;;18.80;51.00;;;20.53;40.71;97503.03;5033171;28;20072;-47
2023/07/20 02:11:20;;;;;;;3.50;2.83;;;18.90;51.00;;;20.53;40.78;97500.31;5032767;28;20053;-50
2023/07/20 02:13:47;;;;;;;3.65;2.20;;;18.80;51.10;;;20.51;40.79;97499.72;5034183;28;20084;-50
2023/07/20 02:16:15;;;;;;;3.30;2.20;;;18.80;51.40;;;20.50;40.57;97506.19;5032514;28;20037;-51
2023/07/20 02:18:43;;;;;;;3.58;2.65;;;18.80;51.40;;;20.52;40.79;97503.25;5032974;28;20049;-49
2023/07/20 02:21:11;;;;;;;4.10;2.72;;;18.80;51.60;;;20.46;40.76;97499.59;5034013;28;20045;-50
2023/07/20 02:23:39;;;;;;;2.85;2.45;;;18.70;51.50;;;20.45;41.08;97503.31;5033608;28;20608;-50
2023/07/20 02:26:07;;;;;;;3.20;2.42;;;18.70;51.60;;;20.42;40.92;97506.50;5024629;28;20425;-49
2023/07/20 02:28:34;;;;;;;3.92;2.53;;;18.70;51.70;;;20.38;41.05;97495.31;5032250;28;20046;-49
2023/07/20 02:31:03;;;;;;;6.22;2.42;;;18.60;52.00;;;20.33;41.17;97492.47;5033748;28;20041;-47
2023/07/20 02:33:31;;;;;;;3.38;2.05;;;18.50;52.20;;;20.30;41.19;97501.03;5033365;28;20311;-51
2023/07/20 02:35:58;;;;;;;4.43;2.80;;;18.50;52.60;;;20.24;41.36;97496.53;5032204;28;20425;-52
2023/07/20 02:38:26;;;;;;;3.53;2.50;;;18.40;52.70;;;20.23;41.35;97497.59;5032385;28;20046;-51
2023/07/20 02:40:54;;;;;;;3.63;2.28;;;18.40;52.60;;;20.19;41.32;97509.91;5033436;28;20492;-50
2023/07/20 02:43:21;;;;;;;4.68;2.70;;;18.40;53.10;;;20.17;41.59;97506.59;5032133;28;20053;-51
2023/07/20 02:45:50;;;;;;;2.78;2.08;;;18.40;53.20;;;20.12;41.55;97509.16;5032496;28;20516;-46
2023/07/20 02:48:18;;;;;;;3.78;1.88;;;18.30;53.20;;;20.11;41.67;97510.22;5032404;28;20049;-50
2023/07/20 02:50:48;;;;;;;3.58;2.47;;;18.30;53.20;;;20.10;41.68;97508.53;5033312;28;20050;-50
2023/07/20 02:53:15;;;;;;;4.10;2.10;;;18.30;53.20;;;20.06;41.92;97510.88;5031819;28;20513;-50
2023/07/20 02:55:43;;;;;;;3.70;3.08;;;18.30;53.10;;;20.05;42.12;97514.63;5031824;28;20057;-49
2023/07/20 02:58:10;;;;;;;2.63;2.13;;;18.30;53.30;;;20.03;41.72;97514.03;5032360;28;20046;-49
2023/07/20 03:00:38;;;;;;;3.03;2.45;;;18.30;53.50;;;19.99;41.95;97521.75;5033303;28;20038;-49
2023/07/20 03:03:09;;;;;;;2.78;2.20;;;18.20;53.90;;;19.97;42.26;97517.66;5031138;28;20036;-48
2023/07/20 03:05:40;;;;;;;3.25;2.28;;;18.20;53.80;;;19.96;42.13;97526.78;5033206;28;20045;-46
2023/07/20 03:08:08;;;;;;;2.60;2.00;;;18.20;53.90;;;19.96;42.35;97521.38;5032994;28;20041;-49
2023/07/20 03:10:40;;;;;;;2.92;1.95;;;18.20;54.40;;;19.90;42.37;97522.28;5032099;28;20057;-47
2023/07/20 03:13:08;;;;;;;5.43;2.33;;;18.10;54.60;;;19.89;42.29;97526.88;5031764;28;20057;-49
2023/07/20 03:15:35;;;;;;;4.00;2.15;;;18.10;54.10;;;19.91;42.27;97527.47;5032972;28;20152;-46
2023/07/20 03:18:04;;;;;;;3.42;2.72;;;18.10;54.20;;;19.86;42.57;97525.41;5031285;28;20037;-48
2023/07/20 03:20:31;;;;;;;3.47;2.58;;;18.10;54.30;;;19.77;42.74;97525.94;5032934;28;20057;-48
2023/07/20 03:22:59;;;;;;;4.45;2.22;;;18.00;54.60;;;19.78;42.59;97533.00;5030803;28;20049;-48
2023/07/20 03:25:27;;;;;;;3.65;2.20;;;18.00;54.50;;;19.83;42.69;97542.09;5031553;28;20049;-51
2023/07/20 03:27:55;;;;;;;2.78;2.22;;;18.10;54.40;;;19.86;42.45;97533.53;5029231;28;20041;-49
2023/07/20 03:30:23;;;;;;;4.53;2.40;;;18.10;54.60;;;19.85;42.64;97526.47;5031524;28;20057;-51
2023/07/20 03:32:51;;;;;;;4.15;2.13;;;18.10;54.20;;;19.84;42.49;97534.81;5031728;28;20057;-48
2023/07/20 03:35:18;;;;;;;4.75;2.30;;;18.10;54.40;;;19.86;42.55;97535.41;5032495;28;20056;-46
2023/07/20 03:37:46;;;;;;;4.97;2.20;;;18.10;54.20;;;19.88;42.65;97537.88;5032597;28;20204;-49
2023/07/20 03:40:14;;;;;;;3.13;2.20;;;18.20;54.20;;;19.89;42.69;97534.97;5031700;28;20044;-51
2023/07/20 03:42:42;;;;;;;5.07;1.92;;;18.20;54.10;;;19.88;42.74;97529.78;5031351;28;20053;-51
2023/07/20 03:45:10;;;;;;;2.95;2.20;;;18.10;54.40;;;19.84;42.74;97535.63;5031039;28;20037;-50
2023/07/20 03:47:38;;;;;;;4.18;2.08;;;18.10;54.60;;;19.82;42.61;97537.72;5031096;28;20041;-49
2023/07/20 03:50:07;;;;;;;5.45;2.60;;;18.10;54.70;;;19.83;42.65;97539.38;5032178;28;20049;-48
2023/07/20 03:52:34;;;;;;;6.97;2.33;;;18.10;54.70;;;19.77;42.70;97534.84;5032701;28;20044;-49
2023/07/20 03:55:02;;;;;;;3.40;2.42;;;18.00;55.00;;;19.79;42.83;97532.78;5030640;28;20505;-50
2023/07/20 03:57:32;;;;;;;3.60;1.95;;;18.00;54.70;;;19.73;43.00;97536.34;5031332;28;20517;-50
2023/07/20 03:59:59;;;;;;;4.57;2.60;;;17.90;55.20;;;19.73;43.18;97535.53;5031962;28;20425;-53
2023/07/20 04:02:27;;;;;;;5.50;2.42;;;17.90;55.40;;;19.72;43.11;97533.91;5032058;28;20543;-56
2023/07/20 04:04:55;;;;;;;3.10;2.00;;;17.90;55.40;;;19.68;43.30;97534.28;5031452;28;20041;-52
2023/07/20 04:07:22;;;;;;;3.85;2.47;;;17.90;55.60;;;19.68;43.24;97539.69;5032123;28;20049;-50
2023/07/20 04:09:50;;;;;;;4.80;2.88;;;17.90;55.70;;;19.70;43.01;97544.03;5031830;28;20042;-48
2023/07/20 04:12:18;;;;;;;2.95;1.92;;;17.90;55.40;;;19.71;43.31;97541.13;5047002;28;20041;-50
2023/07/20 04:14:45;;;;;;;2.67;2.40;;;18.00;55.30;;;19.71;43.32;97548.41;5031967;28;20048;-50
2023/07/20 04:17:13;;;;;;;4.50;3.03;;;17.90;55.50;;;19.72;43.33;97539.28;5030522;28;20057;-51
2023/07/20 04:19:41;;;;;;;2.58;2.20;;;18.00;55.40;;;19.71;43.36;97543.81;5026776;28;20064;-46
2023/07/20 04:22:09;;;;;;;4.38;2.38;;;17.90;55.80;;;19.69;43.59;97551.31;5030532;28;20520;-48
2023/07/20 04:24:37;;;;;;;3.67;2.20;;;18.00;55.60;;;19.72;43.60;97548.22;5031880;28;20037;-48
2023/07/20 04:27:04;;;;;;;3.47;2.08;;;18.00;55.60;;;19.77;43.61;97545.66;5030199;28;20057;-51
2023/07/20 04:29:32;;;;;;;4.80;2.53;;;18.10;55.60;;;19.77;43.67;97558.34;5029106;28;20083;-47
2023/07/20 04:32:00;;;;;;;3.92;2.60;;;18.10;55.60;;;19.79;43.64;97556.25;5031678;28;20511;-48
2023/07/20 04:34:28;;;;;;;4.78;2.85;;;18.10;55.70;;;19.74;43.78;97548.00;5030350;28;20045;-49
2023/07/20 04:36:55;;;;;;;4.18;2.45;;;18.00;56.10;;;19.72;43.84;97550.91;5030341;28;20601;-49
2023/07/20 04:39:25;;;;;;;3.33;1.92;;;18.00;56.20;;;19.76;43.83;97546.72;5029738;28;20527;-48
2023/07/20 04:42:03;;;;;;;2.90;1.80;;;18.00;56.20;;;19.81;43.71;97548.75;5029738;28;20045;-48
2023/07/20 04:44:31;;;;;;;3.25;2.10;;;18.10;56.00;;;19.87;43.78;97547.84;5031575;28;20037;-46
2023/07/20 04:46:58;;;;;;;2.70;2.03;;;18.20;55.90;;;19.89;43.65;97548.47;5029981;28;20042;-46
2023/07/20 04:49:26;;;;;;;3.35;2.15;;;18.20;55.70;;;19.89;43.85;97555.72;5031625;28;20042;-48
2023/07/20 04:51:54;;;;;;;3.85;2.20;;;18.30;55.80;;;19.89;43.84;97555.72;5030060;28;20405;-46
2023/07/20 04:54:22;;;;;;;3.00;2.33;;;18.30;56.10;;;19.90;43.84;97552.81;5031414;28;20029;-46
2023/07/20 04:56:50;;;;;;;3.88;2.10;;;18.30;55.90;;;19.97;44.12;97555.47;5029892;28;20048;-50
2023/07/20 04:59:20;;;;;;;3.22;2.15;;;18.40;55.60;;;20.04;43.82;97558.91;5030280;28;20046;-49
2023/07/20 05:01:47;;;;;;;2.58;2.20;;;18.50;55.60;;;20.05;43.90;97555.97;5029692;28;20048;-48
2023/07/20 05:04:16;;;;;;;2.67;2.28;;;18.50;55.80;;;20.10;43.69;97557.19;5030165;28;20053;-51
2023/07/20 05:06:45;;;;;;;3.92;2.08;;;18.40;55.70;;;20.11;43.79;97556.97;5021340;28;20060;-47
2023/07/20 05:09:13;;;;;;;4.13;2.40;;;18.50;55.80;;;20.14;43.68;97553.81;5030542;28;20054;-47
2023/07/20 05:11:41;;;;;;;4.45;2.30;;;18.50;55.70;;;20.17;44.01;97550.66;5030008;28;20049;-51
2023/07/20 05:14:09;;;;;;;3.58;2.33;;;18.60;55.60;;;20.20;43.98;97557.47;5029164;28;20608;-49
2023/07/20 05:16:37;;;;;;;2.90;2.40;;;18.60;55.70;;;20.22;43.90;97556.22;5030103;28;20417;-46
2023/07/20 05:19:07;;;;;;;3.17;2.20;;;18.60;56.10;;;20.16;44.33;97549.03;5029669;28;20045;-52
2023/07/20 05:21:35;;;;;;;3.85;2.28;;;18.50;56.40;;;20.20;44.06;97557.47;5029373;28;20052;-50
2023/07/20 05:24:03;;;;;;;5.95;2.35;;;18.50;56.30;;;20.26;44.01;97556.59;5029734;28;20049;-51
2023/07/20 05:26:30;;;;;;;4.28;2.40;;;18.60;56.20;;;20.29;44.01;97563.44;5028110;28;20049;-50
2023/07/20 05:28:58;;;;;;;3.63;2.00;;;18.60;56.40;;;20.32;44.26;97561.09;5030795;28;20053;-53
2023/07/20 05:31:26;;;;;;;3.60;2.45;;;18.70;56.40;;;20.35;44.32;97559.81;5030664;28;20421;-48
2023/07/20 05:33:53;;;;;;;4.07;2.45;;;18.70;56.30;;;20.38;44.47;97562.09;5029571;28;20049;-46
2023/07/20 05:36:21;;;;;;;4.93;2.50;;;18.70;56.40;;;20.45;43.96;97557.41;5030724;28;20068;-50
2023/07/20 05:38:49;;;;;;;5.88;2.45;;;18.80;56.20;;;20.48;44.23;97556.97;5030962;28;20041;-49
2023/07/20 05:41:17;;;;;;;5.82;2.47;;;18.90;56.10;;;20.50;44.31;97551.34;5030802;28;20053;-48
2023/07/20 05:43:45;;;;;;;3.42;2.40;;;18.90;56.00;;;20.53;44.22;97540.03;5030444;28;20112;-48
2023/07/20 05:46:12;;;;;;;3.72;2.15;;;19.00;56.00;;;20.56;44.25;97545.00;5030811;28;20038;-49
2023/07/20 05:48:40;;;;;;;3.35;2.15;;;19.00;56.10;;;20.60;44.38;97544.34;5030904;28;20037;-46
2023/07/20 05:51:07;;;;;;;2.85;2.10;;;19.10;56.20;;;20.66;44.06;97548.03;5031212;28;20061;-47
2023/07/20 05:53:36;;;;;;;3.28;2.33;;;19.20;55.50;;;20.74;44.09;97549.59;5030495;28;20488;-47
2023/07/20 05:56:04;;;;;;;4.35;2.38;;;19.30;55.20;;;20.76;43.94;97551.03;5030871;28;20056;-48
2023/07/20 05:58:31;;;;;;;5.40;2.67;;;19.30;55.00;;;20.75;43.73;97552.06;5030497;28;20060;-47
2023/07/20 06:00:59;;;;;;;3.92;2.38;;;19.30;54.90;;;20.78;44.00;97556.19;5030673;28;20049;-49
2023/07/20 06:03:27;;;;;;;5.20;2.55;;;19.40;55.00;;;20.78;44.08;97554.31;5023825;28;20476;-45
2023/07/20 06:06:01;;;;;;;3.75;2.15;;;19.30;55.00;;;20.84;43.89;97558.00;5034396;28;20039;-48
2023/07/20 06:08:30;;;;;;;4.88;2.45;;;19.40;55.20;;;20.83;44.09;97554.44;5026490;28;20057;-47
2023/07/20 06:10:57;;;;;;;4.00;2.53;;;19.40;55.60;;;20.91;44.12;97560.59;5034234;28;20053;-49
2023/07/20 06:13:25;;;;;;;3.05;2.70;;;19.50;55.30;;;20.93;43.70;97559.31;5033508;28;20265;-60
2023/07/20 06:15:53;;;;;;;3.70;3.03;;;19.50;55.10;;;20.99;43.77;97566.50;5034113;28;20402;-61
2023/07/20 06:18:23;;;;;;;6.47;2.35;;;19.70;54.70;;;21.09;43.42;97565.13;5033895;28;20072;-61
2023/07/20 06:20:51;;;;;;;2.80;2.22;;;19.70;54.10;;;21.10;43.76;97564.91;5033839;28;20049;-61
2023/07/20 06:23:19;;;;;;;8.07;2.17;;;19.80;54.20;;;21.21;43.76;97566.00;5033216;28;20048;-61
2023/07/20 06:25:48;;;;;;;6.35;2.05;;;19.90;54.10;;;21.22;43.19;97565.75;5032923;28;20046;-61
2023/07/20 06:28:15;;;;;;;4.00;2.10;;;19.90;53.80;;;21.34;43.20;97557.66;5015628;28;20054;-61
2023/07/20 06:30:43;;;;;;;4.07;2.45;;;20.00;53.70;;;21.42;43.13;97561.91;5026371;28;20049;-61
2023/07/20 06:33:11;;;;;;;4.05;2.13;;;20.10;53.30;;;21.39;42.92;97554.25;5024130;28;20057;-61
2023/07/20 06:35:42;;;;;;;3.40;2.42;;;20.10;53.40;;;21.39;43.23;97557.78;5027521;28;20061;-60
2023/07/20 06:38:10;;;;;;;3.95;2.15;;;20.00;53.50;;;21.32;42.91;97554.34;5027696;28;20042;-61
2023/07/20 06:40:41;;;;;;;4.28;2.30;;;19.90;53.80;;;21.35;43.22;97553.09;5027622;28;20065;-61
2023/07/20 06:43:08;;;;;;;5.70;2.25;;;19.90;54.10;;;21.34;43.24;97554.94;5028548;28;20053;-60
2023/07/20 06:45:39;;;;;;;4.72;2.60;;;19.90;54.10;;;21.31;43.51;97551.91;5037664;28;20049;-61
2023/07/20 06:48:06;;;;;;;3.38;2.10;;;19.80;54.10;;;21.36;42.89;97560.13;5026884;28;20064;-61
2023/07/20 06:50:34;;;;;;;3.72;2.22;;;19.90;54.00;;;21.35;43.25;97548.47;5027260;28;20056;-61
2023/07/20 06:53:03;;;;;;;5.70;2.50;;;19.90;53.90;;;21.40;43.25;97554.03;5028729;28;20417;-61
2023/07/20 06:55:31;;;;;;;2.80;2.10;;;19.90;54.10;;;21.45;42.87;97547.13;5028662;28;20049;-61
2023/07/20 06:58:07;;;;;;;5.68;2.53;;;20.00;53.60;;;21.52;43.18;97548.66;5025514;28;20045;-60
2023/07/20 07:00:35;;;;;;;3.35;2.55;;;20.10;53.90;;;21.55;42.81;97553.59;5032848;28;20527;-60
2023/07/20 07:03:03;;;;;;;6.07;2.65;;;20.20;53.40;;;21.54;42.90;97543.84;5024166;28;20410;-60
2023/07/20 07:05:30;;;;;;;4.10;2.40;;;20.30;53.50;;;21.55;42.97;97552.78;5026289;28;20690;-60
2023/07/20 07:08:05;;;;;;;5.47;2.50;;;20.30;53.70;;;21.47;43.04;97548.53;5024919;28;20053;-60
2023/07/20 07:10:35;;;;;;;4.28;2.28;;;20.20;54.30;;;21.54;43.24;97551.13;5027801;28;20045;-60
2023/07/20 07:13:03;;;;;;;3.97;3.00;;;20.20;53.70;;;21.57;43.45;97554.19;5027931;28;20446;-60
2023/07/20 07:15:33;;;;;;;3.00;2.08;;;20.30;53.90;;;21.55;43.34;97559.00;5026764;28;20500;-60
2023/07/20 07:18:04;;;;;;;4.30;2.40;;;20.30;54.10;;;21.63;43.42;97549.72;5028373;28;20041;-60
2023/07/20 07:20:31;;;;;;;3.50;2.20;;;20.30;53.30;;;21.74;43.46;97556.22;5028124;28;20046;-60
2023/07/20 07:23:00;;;;;;;5.13;2.05;;;20.50;53.40;;;21.76;43.10;97554.09;5042578;28;20065;-60
2023/07/20 07:25:28;;;;;;;3.80;2.53;;;20.50;53.00;;;21.85;42.43;97544.56;5027885;28;20404;-60
2023/07/20 07:27:55;;;;;;;3.80;2.58;;;20.60;52.30;;;21.82;42.27;97542.31;5024639;28;20046;-60
2023/07/20 07:30:23;;;;;;;4.85;2.17;;;20.70;51.70;;;21.93;42.01;97551.50;5031816;28;20056;-61
2023/07/20 07:32:52;;;;;;;3.30;2.47;;;20.70;51.70;;;21.92;42.39;97547.13;5032142;28;20057;-60
2023/07/20 07:35:19;;;;;;;3.13;2.30;;;20.70;51.60;;;21.92;41.95;97539.00;5031997;28;20536;-60
2023/07/20 07:37:47;;;;;;;3.55;2.78;;;20.70;51.30;;;21.90;41.55;97546.56;5032380;28;20057;-62
2023/07/20 07:40:18;;;;;;;3.65;2.28;;;20.70;50.90;;;21.87;41.83;97545.16;5032584;28;20041;-60
2023/07/20 07:44:11;;;;;;;6.03;2.50;;;20.70;51.30;;;21.86;42.16;97542.66;5027780;28;20068;-60
2023/07/20 07:46:39;;;;;;;3.65;2.00;;;20.70;51.00;;;21.93;41.63;97541.50;5026262;28;20060;-60
2023/07/20 07:49:07;;;;;;;2.38;2.05;;;20.70;50.70;;;21.99;41.91;97542.44;5031912;28;20037;-60
2023/07/20 07:51:34;;;;;;;3.92;2.22;;;20.70;51.10;;;22.11;42.02;97548.66;5032269;28;20052;-60
2023/07/20 07:54:02;;;;;;;3.80;2.33;;;20.90;51.00;;;22.17;41.41;97538.75;5030933;28;20041;-60
2023/07/20 07:56:29;;;;;;;4.07;2.42;;;21.10;50.40;;;22.19;41.33;97551.00;5032455;28;20064;-60
2023/07/20 07:58:57;;;;;;;4.18;2.53;;;21.10;49.60;;;22.28;41.20;97547.97;5032047;28;20044;-60
2023/07/20 08:01:25;;;;;;;5.45;2.30;;;21.20;49.20;;;22.12;40.88;97552.19;5031928;28;20049;-59
2023/07/20 08:03:53;;;;;;;5.00;2.70;;;21.10;49.30;;;22.26;41.18;97544.69;5032167;28;20037;-59
2023/07/20 08:06:20;;;;;;;2.90;2.00;;;21.20;49.70;;;22.16;40.29;97547.97;5032082;28;20409;-60
2023/07/20 08:08:48;;;;;;;2.97;2.40;;;21.10;48.20;;;22.02;40.04;97552.78;5031909;28;20041;-60
2023/07/20 08:11:17;;;;;;;2.22;2.00;;;21.10;47.80;;;21.97;40.03;97552.69;5031111;28;20045;-60
2023/07/20 08:13:45;;;;;;;3.58;2.63;;;21.00;47.80;;;22.00;40.59;97544.06;5031064;28;20042;-61
2023/07/20 08:16:13;;;;;;;5.57;2.60;;;20.90;48.30;;;22.09;40.80;97544.53;5031716;28;20045;-60
2023/07/20 08:18:42;;;;;;;5.28;3.08;;;21.00;49.70;;;22.19;41.12;97537.44;5031874;28;20037;-60
2023/07/20 08:21:10;;;;;;;3.90;2.20;;;21.20;49.40;;;22.14;40.67;97541.91;5031727;28;20071;-60
2023/07/20 08:23:37;;;;;;;3.47;2.72;;;21.20;48.70;;;22.15;40.88;97543.59;5031403;28;20064;-60
2023/07/20 08:26:05;;;;;;;3.63;2.78;;;21.20;49.00;;;22.23;40.75;97546.75;5031102;28;20065;-60
2023/07/20 08:28:34;;;;;;;5.38;2.70;;;21.30;49.10;;;22.20;40.82;97549.13;5031853;28;20045;-60
2023/07/20 08:31:02;;;;;;;4.97;2.38;;;21.20;48.50;;;22.07;40.74;97546.66;5031843;28;20524;-60
2023/07/20 08:33:33;;;;;;;3.75;2.85;;;21.00;49.20;;;22.03;40.71;97546.31;5046325;28;20053;-60
2023/07/20 08:36:03;;;;;;;5.65;2.70;;;20.90;49.40;;;22.09;40.31;97533.69;5031424;28;20064;-60
2023/07/20 08:38:31;;;;;;;3.80;2.10;;;21.00;48.40;;;22.07;40.11;97544.78;5031444;28;20426;-60
2023/07/20 08:40:59;;;;;;;3.28;2.08;;;21.00;48.00;;;22.08;40.01;97542.88;5031466;28;20033;-60
2023/07/20 08:43:28;;;;;;;2.83;2.10;;;21.10;47.50;;;22.06;39.89;97539.59;5030346;28;20042;-60
2023/07/20 08:45:57;;;;;;;5.70;2.60;;;21.30;47.20;;;22.25;39.39;97546.53;5031404;28;20045;-60
2023/07/20 08:48:27;;;;;;;2.83;1.75;;;21.40;46.10;;;22.27;39.87;97539.00;5023403;28;20045;-60
2023/07/20 08:50:56;;;;;;;2.75;2.00;;;21.40;46.90;;;22.45;40.08;97534.47;5014226;28;20044;-61
2023/07/20 08:53:24;;;;;;;3.85;2.17;;;21.50;47.40;;;22.53;39.29;97543.06;5029727;28;20045;-60
2023/07/20 08:55:52;;;;;;;3.72;2.10;;;21.50;46.80;;;22.56;39.17;97544.47;5031075;28;20046;-60
2023/07/20 08:58:22;;;;;;;4.18;1.95;;;21.50;46.40;;;22.58;38.98;97534.19;5031117;28;20385;-60
2023/07/20 09:00:51;;;;;;;4.72;2.80;;;21.60;46.00;;;22.61;39.25;97558.13;5030191;28;20041;-60
2023/07/20 09:03:19;;;;;;;3.58;1.77;;;21.70;46.10;;;22.45;38.62;97538.03;5030547;28;20068;-60
2023/07/20 09:05:47;;;;;;;3.03;2.20;;;21.60;44.70;;;22.33;38.46;97538.06;5031250;28;20041;-60
2023/07/20 09:08:14;;;;;;;2.20;1.85;;;21.50;44.80;;;22.44;38.48;97539.06;5029791;28;20049;-60
2023/07/20 09:10:42;;;;;;;5.82;2.35;;;21.40;45.30;;;22.51;37.79;97534.34;5031205;28;20042;-60
2023/07/20 09:13:13;;;;;;;3.38;2.40;;;21.40;44.70;;;22.41;37.84;97534.13;5030673;28;20409;-60
2023/07/20 09:15:47;;;;;;;3.97;1.77;;;21.50;44.50;;;22.54;37.22;97533.84;5029788;28;20045;-60
2023/07/20 09:18:30;;;;;;;3.78;1.90;;;21.60;42.90;;;22.66;37.40;97525.66;5030760;28;20042;-60
2023/07/20 09:21:06;;;;;;;2.38;1.70;;;21.70;43.70;;;22.57;36.47;97532.56;5031494;28;20033;-60
2023/07/20 09:23:36;;;;;;;1.95;1.63;;;21.70;41.90;;;22.52;36.24;97529.72;5024798;28;20037;-60
2023/07/20 09:26:12;;;;;;;2.67;1.88;;;21.70;41.50;;;22.52;35.53;97535.16;5031998;28;20052;-61
2023/07/20 09:28:48;;;;;;;3.13;1.80;;;21.70;40.30;;;22.59;35.80;97523.09;5028772;28;20049;-60
2023/07/20 09:31:21;;;;;;;2.75;1.75;;;21.70;41.00;;;22.64;35.08;97525.09;5032035;28;20049;-60
2023/07/20 09:33:51;;;;;;;5.68;1.75;;;21.80;39.70;;;22.56;34.94;97539.84;5031592;28;20398;-60
2023/07/20 09:36:22;;;;;;;3.60;2.17;;;21.70;39.20;;;22.58;34.74;97531.47;5030851;28;20044;-60
2023/07/20 09:39:09;;;;;;;2.47;1.60;;;21.70;39.10;;;22.55;35.25;97529.25;5022872;28;20053;-60
2023/07/20 09:41:42;;;;;;;4.53;1.67;;;21.70;40.30;;;22.74;35.64;97536.16;5026407;28;20120;-60
2023/07/20 09:44:15;;;;;;;2.58;1.80;;;21.80;40.50;;;22.93;35.71;97546.81;5029458;28;20517;-60
2023/07/20 09:46:48;;;;;;;3.05;2.03;;;22.00;41.00;;;23.04;35.69;97523.41;5040960;28;20703;-60
2023/07/20 09:49:18;;;;;;;2.38;1.55;;;22.10;41.40;;;23.08;35.25;97522.69;5040516;28;20045;-60
2023/07/20 09:51:49;;;;;;;4.63;2.17;;;22.10;40.40;;;22.89;36.07;97527.47;5024348;28;20505;-60
2023/07/20 09:54:17;;;;;;;4.30;1.90;;;22.10;41.10;;;22.95;35.51;97534.66;5030052;28;20678;-60
2023/07/20 09:56:48;;;;;;;2.35;2.08;;;22.10;41.10;;;22.95;35.18;97531.94;5029663;28;20053;-60
2023/07/20 09:59:16;;;;;;;2.72;1.60;;;22.10;40.70;;;23.02;35.30;97529.06;5030274;28;20049;-59
2023/07/20 10:01:46;;;;;;;2.83;2.47;;;22.10;39.00;;;23.14;34.32;97526.31;5034351;28;20512;-60
2023/07/20 10:04:16;;;;;;;2.83;2.00;;;22.20;39.10;;;23.26;34.39;97532.47;5030545;28;20050;-59
2023/07/20 10:06:47;;;;;;;3.85;1.85;;;22.30;39.20;;;23.28;34.88;97521.38;5029421;28;20038;-59
2023/07/20 10:09:15;;;;;;;3.70;1.75;;;22.40;40.30;;;23.25;33.68;97522.69;5032533;28;20064;-61
2023/07/20 10:11:49;;;;;;;3.42;2.20;;;22.40;38.20;;;23.27;34.11;97526.00;5034258;28;20048;-60
2023/07/20 10:14:44;;;;;;;2.97;1.77;;;22.40;38.10;;;23.30;32.68;97527.38;5031592;28;20050;-60
2023/07/20 10:17:21;;;;;;;2.58;1.83;;;22.50;36.90;;;23.35;33.42;97512.00;5030387;28;20057;-60
2023/07/20 10:19:55;;;;;;;2.95;2.58;;;22.50;36.90;;;23.39;33.08;97507.72;5029245;28;20390;-63
2023/07/20 10:22:27;;;;;;;2.10;1.60;;;22.50;37.00;;;23.54;33.02;97522.63;5030764;28;20041;-61
2023/07/20 10:24:58;;;;;;;2.90;1.60;;;22.50;37.60;;;23.54;33.34;97515.28;5034027;28;20045;-60
2023/07/20 10:27:27;;;;;;;2.30;1.67;;;22.60;37.60;;;23.47;32.60;97524.69;5032262;28;20045;-60
2023/07/20 10:29:56;;;;;;;2.65;1.80;;;22.70;36.50;;;23.59;32.71;97509.09;5029112;28;20390;-61
2023/07/20 10:32:23;;;;;;;2.42;2.00;;;22.70;37.30;;;23.70;33.40;97505.47;5032848;28;20420;-60